createdAt,value
2018-08-12T00:01:38.127Z,86.02
2018-08-12T00:06:33.588Z,87.03
2018-08-12T00:11:30.103Z,87.70
2018-08-12T00:16:25.672Z,88.47
2018-08-12T00:21:22.166Z,89.04
2018-08-12T00:26:19.140Z,89.81
2018-08-12T00:31:14.526Z,89.72
2018-08-12T00:36:10.345Z,89.43
2018-08-12T00:41:06.202Z,86.98
2018-08-12T00:46:03.413Z,86.50
2018-08-12T00:50:59.695Z,86.55
2018-08-12T00:55:56.477Z,88.37
2018-08-12T01:00:51.822Z,89.23
2018-08-12T01:05:48.742Z,89.09
2018-08-12T01:10:44.150Z,88.28
2018-08-12T01:15:40.143Z,89.81
2018-08-12T01:20:35.626Z,89.48
2018-08-12T01:25:31.378Z,90.72
2018-08-12T01:30:26.961Z,89.95
2018-08-12T01:35:22.663Z,90.82
2018-08-12T01:40:18.446Z,92.06
2018-08-12T01:45:15.561Z,91.53
2018-08-12T01:50:10.948Z,90.24
2018-08-12T01:55:08.082Z,89.58
2018-08-12T02:00:04.463Z,89.00
2018-08-12T02:05:01.341Z,87.08
2018-08-12T02:09:57.204Z,87.27
2018-08-12T02:14:53.065Z,88.95
2018-08-12T02:19:49.332Z,88.23
2018-08-12T02:24:45.246Z,86.32
2018-08-12T02:29:42.349Z,85.94
2018-08-12T02:34:38.904Z,85.21
2018-08-12T02:39:35.502Z,86.22
2018-08-12T02:44:32.130Z,88.19
2018-08-12T02:49:28.509Z,88.29
2018-08-12T02:54:24.104Z,86.13
2018-08-12T02:59:19.832Z,85.65
2018-08-12T03:04:15.536Z,86.90
2018-08-12T03:09:11.758Z,87.52
2018-08-12T03:14:07.664Z,87.52
2018-08-12T03:19:03.490Z,87.23
2018-08-12T03:24:00.079Z,87.33
2018-08-12T03:28:55.666Z,87.14
2018-08-12T03:33:52.412Z,87.81
2018-08-12T03:38:47.999Z,88.34
2018-08-12T03:43:44.049Z,89.10
2018-08-12T03:48:39.671Z,89.39
2018-08-12T03:53:36.980Z,89.58
2018-08-12T03:58:32.990Z,89.48
2018-08-12T04:03:28.709Z,90.34
2018-08-12T04:08:25.697Z,89.39
2018-08-12T04:13:21.441Z,89.48
2018-08-12T04:18:17.002Z,89.92
2018-08-12T04:23:12.746Z,89.77
2018-08-12T04:28:09.908Z,89.87
2018-08-12T04:33:05.676Z,90.44
2018-08-12T04:38:01.453Z,90.82
2018-08-12T04:42:57.500Z,89.67
2018-08-12T04:47:53.354Z,89.29
2018-08-12T04:52:48.978Z,89.20
2018-08-12T04:57:44.954Z,88.81
2018-08-12T05:02:40.521Z,88.24
2018-08-12T05:07:36.846Z,88.62
2018-08-12T05:12:32.739Z,88.53
2018-08-12T05:17:29.686Z,87.09
2018-08-12T05:22:26.476Z,86.47
2018-08-12T05:27:22.191Z,85.55
2018-08-12T05:32:18.564Z,83.73
2018-08-12T05:37:15.490Z,82.73
2018-08-12T05:42:11.152Z,82.53
2018-08-12T05:47:07.095Z,82.34
2018-08-12T05:52:03.029Z,81.48
2018-08-12T05:57:00.760Z,81.52
2018-08-12T06:01:56.290Z,80.66
2018-08-12T06:06:52.126Z,80.56
2018-08-12T06:11:48.442Z,79.64
2018-08-12T06:16:44.137Z,77.63
2018-08-12T06:21:40.313Z,77.73
2018-08-12T06:26:36.464Z,77.48
2018-08-12T06:31:32.525Z,77.67
2018-08-12T06:36:28.547Z,77.38
2018-08-12T06:41:24.855Z,75.27
2018-08-12T06:46:20.704Z,74.06
2018-08-12T06:51:16.676Z,74.06
2018-08-12T06:56:12.497Z,73.97
2018-08-12T07:01:09.359Z,72.63
2018-08-12T07:06:05.325Z,71.70
2018-08-12T07:11:01.139Z,71.22
2018-08-12T07:15:57.293Z,69.05
2018-08-12T07:20:53.840Z,68.18
2018-08-12T07:25:51.097Z,68.95
2018-08-12T07:30:46.841Z,68.18
2018-08-12T07:35:43.413Z,67.19
2018-08-12T07:40:41.366Z,64.34
2018-08-12T07:45:39.509Z,62.83
2018-08-12T07:50:36.825Z,60.75
2018-08-12T07:55:35.378Z,56.81
2018-08-12T08:00:33.082Z,53.97
2018-08-12T08:05:31.359Z,52.48
2018-08-12T08:10:29.791Z,49.63
2018-08-12T08:15:25.386Z,49.60
2018-08-12T08:20:21.785Z,49.90
2018-08-12T08:25:18.718Z,50.28
2018-08-12T08:30:13.540Z,51.49
2018-08-12T08:35:10.756Z,51.01
2018-08-12T08:40:06.968Z,50.84
2018-08-12T08:45:03.851Z,50.79
2018-08-12T08:49:59.425Z,50.84
2018-08-12T08:54:54.119Z,51.23
2018-08-12T08:59:49.398Z,52.43
2018-08-12T09:04:44.413Z,53.39
2018-08-12T09:09:39.929Z,53.52
2018-08-12T09:14:35.766Z,54.10
2018-08-12T09:19:31.576Z,53.81
2018-08-12T09:24:28.359Z,53.45
2018-08-12T09:29:25.243Z,52.97
2018-08-12T09:34:20.983Z,52.02
2018-08-12T09:39:18.047Z,50.16
2018-08-12T09:44:16.658Z,49.22
2018-08-12T09:49:14.344Z,48.76
2018-08-12T09:54:10.378Z,49.61
2018-08-12T09:59:08.360Z,49.05
2018-08-12T10:04:04.972Z,49.34
2018-08-12T10:09:01.539Z,49.24
2018-08-12T10:13:57.966Z,49.24
2018-08-12T10:18:54.352Z,49.73
2018-08-12T10:23:51.630Z,49.73
2018-08-12T10:28:48.354Z,49.75
2018-08-12T10:33:45.198Z,49.19
2018-08-12T10:38:42.211Z,49.58
2018-08-12T10:43:38.997Z,48.93
2018-08-12T10:48:35.417Z,48.64
2018-08-12T10:53:31.894Z,48.15
2018-08-12T10:58:29.571Z,46.62
2018-08-12T11:03:25.965Z,46.45
2018-08-12T11:08:22.501Z,46.25
2018-08-12T11:13:19.981Z,46.25
2018-08-12T11:18:17.146Z,47.03
2018-08-12T11:23:13.983Z,46.74
2018-08-12T11:28:10.046Z,45.94
2018-08-12T11:33:06.545Z,46.06
2018-08-12T11:38:02.312Z,46.91
2018-08-12T11:42:58.625Z,46.64
2018-08-12T11:47:55.116Z,45.40
2018-08-12T11:52:51.991Z,45.31
2018-08-12T11:57:49.433Z,46.06
2018-08-12T12:02:47.622Z,46.11
2018-08-12T12:07:42.845Z,45.60
2018-08-12T12:12:37.538Z,46.45
2018-08-12T12:17:33.705Z,46.25
2018-08-12T12:22:28.771Z,46.25
2018-08-12T12:27:24.183Z,46.74
2018-08-12T12:32:20.246Z,47.13
2018-08-12T12:37:14.450Z,47.20
2018-08-12T12:42:12.944Z,47.20
2018-08-12T12:47:07.857Z,46.81
2018-08-12T12:52:03.035Z,47.47
2018-08-12T12:56:59.259Z,48.25
2018-08-12T13:01:54.825Z,47.38
2018-08-12T13:06:50.916Z,47.49
2018-08-12T13:11:49.406Z,46.37
2018-08-12T13:16:45.767Z,46.35
2018-08-12T13:21:42.048Z,45.79
2018-08-12T13:26:37.342Z,45.98
2018-08-12T13:31:33.396Z,46.18
2018-08-12T13:36:29.681Z,45.32
2018-08-12T13:41:26.054Z,45.31
2018-08-12T13:46:21.830Z,45.31
2018-08-12T13:51:17.395Z,45.57
2018-08-12T13:56:12.830Z,45.17
2018-08-12T14:01:08.092Z,45.75
2018-08-12T14:06:03.725Z,46.79
2018-08-12T14:10:59.427Z,47.47
2018-08-12T14:15:56.609Z,46.52
2018-08-12T14:20:52.183Z,46.01
2018-08-12T14:25:48.542Z,46.23
2018-08-12T14:30:44.865Z,45.82
2018-08-12T14:35:41.137Z,46.01
2018-08-12T14:40:37.032Z,46.60
2018-08-12T14:45:33.330Z,47.35
2018-08-12T14:50:29.353Z,47.74
2018-08-12T14:55:25.236Z,46.09
2018-08-12T15:00:22.148Z,45.92
2018-08-12T15:05:17.792Z,45.43
2018-08-12T15:10:13.843Z,45.92
2018-08-12T15:15:09.977Z,45.34
2018-08-12T15:20:06.013Z,45.43
2018-08-12T15:25:01.912Z,45.72
2018-08-12T15:29:58.192Z,45.62
2018-08-12T15:34:55.240Z,44.65
2018-08-12T15:39:51.299Z,45.34
2018-08-12T15:44:48.468Z,45.04
2018-08-12T15:49:44.146Z,45.43
2018-08-12T15:54:41.123Z,45.92
2018-08-12T15:59:36.747Z,46.31
2018-08-12T16:04:32.562Z,45.53
2018-08-12T16:09:28.562Z,45.24
2018-08-12T16:14:24.494Z,46.11
2018-08-12T16:19:20.584Z,45.82
2018-08-12T16:24:16.666Z,45.24
2018-08-12T16:29:12.667Z,45.24
2018-08-12T16:34:09.732Z,44.95
2018-08-12T16:39:06.468Z,45.31
2018-08-12T16:44:02.208Z,45.31
2018-08-12T16:48:58.991Z,45.31
2018-08-12T16:53:55.528Z,45.12
2018-08-12T16:58:52.308Z,45.20
2018-08-12T17:03:49.098Z,45.97
2018-08-12T17:08:46.111Z,45.58
2018-08-12T17:13:42.570Z,45.10
2018-08-12T17:18:38.152Z,45.20
2018-08-12T17:23:34.370Z,46.26
2018-08-12T17:28:31.423Z,45.87
2018-08-12T17:33:27.133Z,44.81
2018-08-12T17:38:23.106Z,44.90
2018-08-12T17:43:18.942Z,44.81
2018-08-12T17:48:15.477Z,45.10
2018-08-12T17:53:11.464Z,45.78
2018-08-12T17:58:07.338Z,46.36
2018-08-12T18:03:03.428Z,44.51
2018-08-12T18:07:59.142Z,44.71
2018-08-12T18:12:55.254Z,44.10
2018-08-12T18:17:52.042Z,44.59
2018-08-12T18:22:47.992Z,44.30
2018-08-12T18:27:43.690Z,44.10
2018-08-12T18:32:39.516Z,45.54
2018-08-12T18:37:35.407Z,46.02
2018-08-12T18:42:31.282Z,47.86
2018-08-12T18:47:28.345Z,48.52
2018-08-12T18:52:23.941Z,48.79
2018-08-12T18:57:20.341Z,48.01
2018-08-12T19:02:16.763Z,48.30
2018-08-12T19:07:12.584Z,48.79
2018-08-12T19:12:08.309Z,49.44
2018-08-12T19:17:04.184Z,50.31
2018-08-12T19:22:00.308Z,50.86
2018-08-12T19:26:56.133Z,51.73
2018-08-12T19:31:52.169Z,52.80
2018-08-12T19:36:48.467Z,54.22
2018-08-12T19:41:44.881Z,54.51
2018-08-12T19:46:40.922Z,55.57
2018-08-12T19:51:36.610Z,55.45
2018-08-12T19:56:32.350Z,57.77
2018-08-12T20:01:28.540Z,58.35
2018-08-12T20:06:24.932Z,59.02
2018-08-12T20:11:20.615Z,59.02
2018-08-12T20:16:16.595Z,58.80
2018-08-12T20:21:12.415Z,59.77
2018-08-12T20:26:09.321Z,58.90
2018-08-12T20:31:05.919Z,61.86
2018-08-12T20:36:01.335Z,60.71
2018-08-12T20:40:57.242Z,61.77
2018-08-12T20:45:53.119Z,61.86
2018-08-12T20:50:49.302Z,61.19
2018-08-12T20:55:45.246Z,61.16
2018-08-12T21:00:41.137Z,63.18
2018-08-12T21:05:36.997Z,62.51
2018-08-12T21:10:32.648Z,62.60
2018-08-12T21:15:28.943Z,60.77
2018-08-12T21:20:24.809Z,62.99
2018-08-12T21:25:21.809Z,64.34
2018-08-12T21:30:17.671Z,62.38
2018-08-12T21:35:13.533Z,60.16
2018-08-12T21:40:09.299Z,62.18
2018-08-12T21:45:06.272Z,61.41
2018-08-12T21:50:01.767Z,63.92
2018-08-12T21:54:57.825Z,63.06
2018-08-12T21:59:53.801Z,64.86
2018-08-12T22:04:49.553Z,63.79
2018-08-12T22:09:46.352Z,63.89
2018-08-12T22:14:41.885Z,63.70
2018-08-12T22:19:37.677Z,62.45
2018-08-12T22:24:34.604Z,61.58
2018-08-12T22:29:30.130Z,61.77
2018-08-12T22:34:26.147Z,61.19
2018-08-12T22:39:22.252Z,61.29
2018-08-12T22:44:18.506Z,62.06
2018-08-12T22:49:14.323Z,62.06
2018-08-12T22:54:10.165Z,62.25
2018-08-12T22:59:05.916Z,62.22
2018-08-12T23:04:02.422Z,61.93
2018-08-12T23:08:58.351Z,62.32
2018-08-12T23:13:55.295Z,62.12
2018-08-12T23:18:51.614Z,61.83
2018-08-12T23:23:47.440Z,61.22
2018-08-12T23:28:43.485Z,60.55
2018-08-12T23:33:39.290Z,60.84
2018-08-12T23:38:35.336Z,60.55
2018-08-12T23:43:31.179Z,60.84
2018-08-12T23:48:27.660Z,60.65
2018-08-12T23:53:24.573Z,60.55
2018-08-12T23:58:20.461Z,60.94
